createdAt,value
2018-07-06T00:02:05.091Z,17.00
2018-07-06T00:04:44.300Z,17.00
2018-07-06T00:07:23.394Z,17.00
2018-07-06T00:10:02.256Z,17.00
2018-07-06T00:12:41.440Z,17.00
2018-07-06T00:17:53.680Z,17.00
2018-07-06T00:20:32.618Z,17.00
2018-07-06T00:23:11.836Z,17.00
2018-07-06T00:25:50.792Z,17.00
2018-07-06T00:28:30.156Z,17.00
2018-07-06T00:31:09.018Z,17.00
2018-07-06T00:36:21.338Z,16.90
2018-07-06T00:41:33.333Z,16.80
2018-07-06T00:44:12.381Z,16.80
2018-07-06T00:46:51.367Z,16.80
2018-07-06T00:49:30.360Z,16.80
2018-07-06T00:52:09.284Z,16.80
2018-07-06T00:54:48.431Z,16.80
2018-07-06T00:57:27.368Z,16.80
2018-07-06T01:00:06.469Z,16.80
2018-07-06T01:02:45.356Z,16.70
2018-07-06T01:05:24.220Z,16.70
2018-07-06T01:08:03.309Z,16.80
2018-07-06T01:10:42.200Z,16.80
2018-07-06T01:13:21.110Z,16.80
2018-07-06T01:16:00.239Z,16.80
2018-07-06T01:18:39.146Z,16.80
2018-07-06T01:21:18.335Z,16.80
2018-07-06T01:23:57.176Z,16.80
2018-07-06T01:26:36.165Z,16.80
2018-07-06T01:29:15.075Z,16.80
2018-07-06T01:31:54.173Z,16.80
2018-07-06T01:34:33.062Z,16.70
2018-07-06T01:37:12.038Z,16.70
2018-07-06T01:39:50.853Z,16.70
2018-07-06T01:42:29.824Z,16.60
2018-07-06T01:45:08.707Z,16.70
2018-07-06T01:47:47.884Z,16.70
2018-07-06T01:50:26.800Z,16.70
2018-07-06T01:53:05.891Z,16.70
2018-07-06T01:55:44.651Z,16.60
2018-07-06T01:58:23.639Z,16.70
2018-07-06T02:01:02.680Z,16.60
2018-07-06T02:03:41.601Z,16.60
2018-07-06T02:06:20.369Z,16.60
2018-07-06T02:08:59.526Z,16.60
2018-07-06T02:11:38.421Z,16.60
2018-07-06T02:14:17.216Z,16.60
2018-07-06T02:16:56.491Z,16.60
2018-07-06T02:19:35.460Z,16.60
2018-07-06T02:22:14.542Z,16.60
2018-07-06T02:27:26.523Z,16.60
2018-07-06T02:30:05.688Z,16.60
2018-07-06T02:32:44.652Z,16.50
2018-07-06T02:35:23.704Z,16.50
2018-07-06T02:38:02.669Z,16.50
2018-07-06T02:40:41.804Z,16.50
2018-07-06T02:43:20.820Z,16.50
2018-07-06T02:48:32.845Z,16.40
2018-07-06T02:51:12.149Z,16.40
2018-07-06T02:53:51.024Z,16.40
2018-07-06T02:56:30.128Z,16.40
2018-07-06T03:01:42.045Z,16.40
2018-07-06T03:04:20.926Z,16.30
2018-07-06T03:07:00.193Z,16.40
2018-07-06T03:09:39.321Z,16.40
2018-07-06T03:12:18.109Z,16.40
2018-07-06T03:14:57.452Z,16.40
2018-07-06T03:17:36.368Z,16.30
2018-07-06T03:20:15.518Z,16.30
2018-07-06T03:22:54.870Z,16.30
2018-07-06T03:25:33.683Z,16.30
2018-07-06T03:28:12.856Z,16.30
2018-07-06T03:30:51.865Z,16.30
2018-07-06T03:33:30.789Z,16.30
2018-07-06T03:36:09.757Z,16.30
2018-07-06T03:38:48.872Z,16.30
2018-07-06T03:41:27.786Z,16.30
2018-07-06T03:44:06.791Z,16.30
2018-07-06T03:46:45.769Z,16.30
2018-07-06T03:49:24.720Z,16.30
2018-07-06T03:52:03.847Z,16.30
2018-07-06T03:54:42.686Z,16.30
2018-07-06T03:57:21.641Z,16.30
2018-07-06T04:00:00.928Z,16.30
2018-07-06T04:02:39.727Z,16.30
2018-07-06T04:05:18.764Z,16.30
2018-07-06T04:07:57.676Z,16.30
2018-07-06T04:10:36.634Z,16.30
2018-07-06T04:13:15.609Z,16.30
2018-07-06T04:15:54.531Z,16.30
2018-07-06T04:18:33.645Z,16.30
2018-07-06T04:21:12.768Z,16.30
2018-07-06T04:23:51.736Z,16.30
2018-07-06T04:26:30.656Z,16.30
2018-07-06T04:29:09.555Z,16.30
2018-07-06T04:31:48.508Z,16.30
2018-07-06T04:34:27.676Z,16.30
2018-07-06T04:37:06.649Z,16.30
2018-07-06T04:39:45.612Z,16.30
2018-07-06T04:42:24.494Z,16.30
2018-07-06T04:45:03.599Z,16.30
2018-07-06T04:47:42.668Z,16.30
2018-07-06T04:50:22.240Z,16.30
2018-07-06T04:53:01.376Z,16.30
2018-07-06T04:55:40.273Z,16.30
2018-07-06T04:58:19.097Z,16.30
2018-07-06T05:00:58.001Z,16.40
2018-07-06T05:03:36.989Z,16.30
2018-07-06T05:06:15.997Z,16.30
2018-07-06T05:08:54.957Z,16.30
2018-07-06T05:11:33.891Z,16.40
2018-07-06T05:14:12.712Z,16.40
2018-07-06T05:16:52.874Z,16.40
2018-07-06T05:19:32.570Z,16.40
2018-07-06T05:22:11.740Z,16.40
2018-07-06T05:24:50.813Z,16.40
2018-07-06T05:27:29.809Z,16.40
2018-07-06T05:30:09.060Z,16.40
2018-07-06T05:32:48.047Z,16.50
2018-07-06T05:35:27.085Z,16.50
2018-07-06T05:38:06.035Z,16.50
2018-07-06T05:40:45.054Z,16.50
2018-07-06T05:43:24.186Z,16.50
2018-07-06T05:46:03.441Z,16.50
2018-07-06T05:48:42.397Z,16.50
2018-07-06T05:53:54.727Z,16.50
2018-07-06T05:56:33.871Z,16.60
2018-07-06T05:59:12.732Z,16.50
2018-07-06T06:01:51.854Z,16.50
2018-07-06T06:04:30.718Z,16.50
2018-07-06T06:07:09.930Z,16.50
2018-07-06T06:09:37.491Z,16.60
2018-07-06T06:12:05.060Z,16.60
2018-07-06T06:14:32.921Z,16.60
2018-07-06T06:17:00.650Z,16.60
2018-07-06T06:19:28.272Z,16.60
2018-07-06T06:21:56.009Z,16.60
2018-07-06T06:24:23.561Z,16.60
2018-07-06T06:26:51.216Z,16.60
2018-07-06T06:29:19.432Z,16.60
2018-07-06T06:31:47.253Z,16.60
2018-07-06T06:34:14.878Z,16.60
2018-07-06T06:36:42.585Z,16.70
2018-07-06T06:39:10.281Z,16.60
2018-07-06T06:41:37.900Z,16.60
2018-07-06T06:44:05.544Z,16.60
2018-07-06T06:46:33.158Z,16.70
2018-07-06T06:49:01.030Z,16.70
2018-07-06T06:51:28.788Z,16.70
2018-07-06T06:53:56.441Z,16.70
2018-07-06T06:56:23.996Z,16.70
2018-07-06T07:01:19.721Z,16.70
2018-07-06T07:06:15.049Z,16.80
2018-07-06T07:08:42.586Z,16.70
2018-07-06T07:11:10.551Z,16.70
2018-07-06T07:13:38.249Z,16.70
2018-07-06T07:16:06.229Z,16.70
2018-07-06T07:18:34.095Z,16.80
2018-07-06T07:21:01.824Z,16.80
2018-07-06T07:23:29.551Z,16.80
2018-07-06T07:25:58.211Z,16.80
2018-07-06T07:28:25.821Z,16.80
2018-07-06T07:30:53.713Z,16.80
2018-07-06T07:33:21.421Z,16.90
2018-07-06T07:35:49.058Z,16.90
2018-07-06T07:38:16.859Z,16.90
2018-07-06T07:40:44.508Z,16.90
2018-07-06T07:43:12.137Z,16.90
2018-07-06T07:45:39.719Z,16.90
2018-07-06T07:48:07.510Z,17.00
2018-07-06T07:50:35.500Z,17.00
2018-07-06T07:53:14.555Z,17.00
2018-07-06T07:55:42.154Z,17.00
2018-07-06T07:58:09.793Z,17.10
2018-07-06T08:00:37.576Z,17.20
2018-07-06T08:03:05.161Z,17.20
2018-07-06T08:05:32.789Z,17.30
2018-07-06T08:08:00.860Z,17.30
2018-07-06T08:10:28.520Z,17.40
2018-07-06T08:12:56.098Z,17.50
2018-07-06T08:15:23.705Z,17.50
2018-07-06T08:17:51.439Z,17.50
2018-07-06T08:20:19.054Z,17.50
2018-07-06T08:22:46.645Z,17.60
2018-07-06T08:25:14.240Z,17.60
2018-07-06T08:27:41.804Z,17.70
2018-07-06T08:30:09.520Z,17.70
2018-07-06T08:32:37.165Z,17.70
2018-07-06T08:35:16.425Z,17.70
2018-07-06T08:38:00.293Z,17.80
2018-07-06T08:40:28.237Z,17.80
2018-07-06T08:42:57.350Z,17.80
2018-07-06T08:45:25.442Z,17.90
2018-07-06T08:47:53.021Z,18.00
2018-07-06T08:50:20.981Z,18.00
2018-07-06T08:52:49.649Z,18.10
2018-07-06T08:57:46.568Z,18.20
2018-07-06T09:00:14.149Z,18.20
2018-07-06T09:02:42.027Z,18.20
2018-07-06T09:05:10.393Z,18.20
2018-07-06T09:07:38.394Z,18.40
2018-07-06T09:10:06.098Z,18.50
2018-07-06T09:12:33.742Z,18.60
2018-07-06T09:15:02.097Z,18.60
2018-07-06T09:17:29.845Z,18.60
2018-07-06T09:22:25.804Z,18.70
2018-07-06T09:24:54.642Z,18.80
2018-07-06T09:27:22.406Z,18.90
2018-07-06T09:29:50.135Z,19.00
2018-07-06T09:32:17.766Z,19.00
2018-07-06T09:34:45.418Z,19.10
2018-07-06T09:37:13.009Z,19.20
2018-07-06T09:39:41.292Z,19.20
2018-07-06T09:42:08.877Z,19.20
2018-07-06T09:44:36.457Z,19.30
2018-07-06T09:47:05.134Z,19.40
2018-07-06T09:49:32.904Z,19.40
2018-07-06T09:52:00.789Z,19.40
2018-07-06T09:54:28.341Z,19.40
2018-07-06T09:56:56.013Z,19.40
2018-07-06T09:59:23.625Z,19.40
2018-07-06T10:01:51.367Z,19.50
2018-07-06T10:04:19.074Z,19.60
2018-07-06T10:06:46.914Z,19.60
2018-07-06T10:09:14.461Z,19.70
2018-07-06T10:11:41.972Z,19.80
2018-07-06T10:16:37.133Z,20.30
2018-07-06T10:19:06.482Z,20.50
2018-07-06T10:21:34.509Z,20.60
2018-07-06T10:24:02.253Z,20.70
2018-07-06T10:26:30.020Z,20.50
2018-07-06T10:30:09.227Z,20.50
2018-07-06T10:32:38.734Z,20.50
2018-07-06T10:35:06.433Z,20.50
2018-07-06T10:37:34.312Z,20.70
2018-07-06T10:40:02.060Z,21.00
2018-07-06T10:42:29.877Z,21.30
2018-07-06T10:44:57.546Z,21.50
2018-07-06T10:47:25.233Z,21.40
2018-07-06T10:49:52.758Z,21.30
2018-07-06T10:52:20.509Z,21.20
2018-07-06T10:54:48.833Z,21.30
2018-07-06T10:57:16.596Z,21.50
2018-07-06T10:59:44.286Z,21.60
2018-07-06T11:02:15.196Z,21.60
2018-07-06T11:04:44.025Z,21.50
2018-07-06T11:07:12.234Z,21.60
2018-07-06T11:09:41.869Z,21.80
2018-07-06T11:12:10.539Z,21.90
2018-07-06T11:14:38.835Z,21.70
2018-07-06T11:17:06.930Z,21.80
2018-07-06T11:19:36.861Z,22.00
2018-07-06T11:22:06.124Z,22.20
2018-07-06T11:24:34.788Z,22.40
2018-07-06T11:27:02.397Z,22.50
2018-07-06T11:29:31.055Z,22.70
2018-07-06T11:31:59.204Z,22.90
2018-07-06T11:34:27.583Z,23.00
2018-07-06T11:36:56.589Z,22.90
2018-07-06T11:39:27.503Z,22.90
2018-07-06T11:41:55.958Z,23.00
2018-07-06T11:44:24.372Z,22.90
2018-07-06T11:46:52.628Z,23.10
2018-07-06T11:49:21.215Z,23.20
2018-07-06T11:51:50.291Z,23.20
2018-07-06T11:56:47.905Z,22.80
2018-07-06T11:59:15.937Z,22.60
2018-07-06T12:01:44.262Z,22.40
2018-07-06T12:04:12.622Z,22.40
2018-07-06T12:06:40.758Z,22.70
2018-07-06T12:09:09.360Z,23.20
2018-07-06T12:11:37.613Z,23.20
2018-07-06T12:14:06.264Z,23.00
2018-07-06T12:16:34.615Z,22.70
2018-07-06T12:19:03.560Z,22.60
2018-07-06T12:21:31.822Z,22.50
2018-07-06T12:23:59.662Z,22.70
2018-07-06T12:26:28.647Z,23.00
2018-07-06T12:28:57.321Z,23.40
2018-07-06T12:31:27.030Z,23.50
2018-07-06T12:33:56.260Z,23.70
2018-07-06T12:36:24.545Z,23.80
2018-07-06T12:38:52.936Z,23.60
2018-07-06T12:41:21.383Z,23.30
2018-07-06T12:43:49.041Z,22.70
2018-07-06T12:46:16.663Z,22.20
2018-07-06T12:48:44.482Z,22.10
2018-07-06T12:51:13.704Z,22.00
2018-07-06T12:53:42.248Z,22.10
2018-07-06T12:56:09.920Z,22.20
2018-07-06T12:58:37.686Z,22.20
2018-07-06T13:01:05.313Z,22.20
2018-07-06T13:03:32.969Z,22.10
2018-07-06T13:06:00.748Z,22.10
2018-07-06T13:08:28.392Z,21.90
2018-07-06T13:10:55.949Z,21.80
2018-07-06T13:13:23.597Z,21.70
2018-07-06T13:15:52.372Z,21.50
2018-07-06T13:18:19.995Z,21.40
2018-07-06T13:20:47.670Z,21.40
2018-07-06T13:23:15.274Z,21.50
2018-07-06T13:25:43.335Z,21.60
2018-07-06T13:28:10.965Z,21.60
2018-07-06T13:30:38.854Z,21.70
2018-07-06T13:33:06.466Z,21.70
2018-07-06T13:35:34.061Z,21.70
2018-07-06T13:40:29.541Z,21.90
2018-07-06T13:42:57.286Z,22.00
2018-07-06T13:45:26.100Z,22.00
2018-07-06T13:47:54.394Z,22.00
2018-07-06T13:50:22.049Z,22.10
2018-07-06T13:52:49.652Z,22.10
2018-07-06T13:55:17.245Z,22.00
2018-07-06T13:57:45.481Z,22.10
2018-07-06T14:00:13.353Z,22.20
2018-07-06T14:02:40.944Z,22.30
2018-07-06T14:05:08.620Z,22.40
2018-07-06T14:07:36.381Z,22.60
2018-07-06T14:10:04.993Z,22.70
2018-07-06T14:12:32.604Z,22.70
2018-07-06T14:15:00.268Z,22.70
2018-07-06T14:17:27.850Z,22.70
2018-07-06T14:19:55.561Z,22.70
2018-07-06T14:22:23.648Z,22.80
2018-07-06T14:24:51.310Z,22.80
2018-07-06T14:27:19.898Z,22.70
2018-07-06T14:29:48.230Z,22.70
2018-07-06T14:32:19.625Z,22.70
2018-07-06T14:34:48.159Z,22.70
2018-07-06T14:37:15.946Z,22.70
2018-07-06T14:39:43.659Z,22.70
2018-07-06T14:42:11.294Z,22.80
2018-07-06T14:44:39.031Z,23.00
2018-07-06T14:47:06.723Z,23.10
2018-07-06T14:49:35.596Z,23.20
2018-07-06T14:52:05.397Z,23.20
2018-07-06T14:54:33.294Z,23.00
2018-07-06T14:57:01.073Z,23.00
2018-07-06T14:59:29.051Z,23.10
2018-07-06T15:01:58.211Z,23.20
2018-07-06T15:04:25.893Z,23.30
2018-07-06T15:06:53.625Z,23.30
2018-07-06T15:09:22.471Z,23.40
2018-07-06T15:11:50.656Z,23.60
2018-07-06T15:14:18.228Z,23.70
2018-07-06T15:16:45.858Z,23.80
2018-07-06T15:19:14.767Z,23.90
2018-07-06T15:21:42.708Z,23.80
2018-07-06T15:24:10.319Z,24.00
2018-07-06T15:26:37.902Z,24.10
2018-07-06T15:29:05.514Z,24.10
2018-07-06T15:31:33.292Z,24.00
2018-07-06T15:34:01.214Z,23.80
2018-07-06T15:36:28.775Z,23.80
2018-07-06T15:38:56.412Z,23.70
2018-07-06T15:41:24.237Z,23.60
2018-07-06T15:43:51.950Z,23.60
2018-07-06T15:46:19.550Z,23.60
2018-07-06T15:51:14.951Z,23.60
2018-07-06T15:53:43.093Z,23.60
2018-07-06T15:56:10.785Z,23.70
2018-07-06T15:58:38.585Z,23.70
2018-07-06T16:01:06.859Z,23.70
2018-07-06T16:03:34.845Z,23.80
2018-07-06T16:06:02.605Z,23.80
2018-07-06T16:08:30.152Z,23.80
2018-07-06T16:10:57.788Z,23.80
2018-07-06T16:13:25.668Z,23.90
2018-07-06T16:15:53.329Z,24.00
2018-07-06T16:18:20.912Z,24.00
2018-07-06T16:20:48.559Z,24.00
2018-07-06T16:23:16.133Z,24.10
2018-07-06T16:25:43.860Z,24.00
2018-07-06T16:30:40.064Z,24.00
2018-07-06T16:33:07.617Z,23.90
2018-07-06T16:35:35.545Z,23.80
2018-07-06T16:38:03.405Z,23.60
2018-07-06T16:40:30.995Z,23.50
2018-07-06T16:42:58.643Z,23.50
2018-07-06T16:45:26.252Z,23.40
2018-07-06T16:47:53.957Z,23.40
2018-07-06T16:50:21.506Z,23.20
2018-07-06T16:52:49.208Z,23.10
2018-07-06T16:55:18.803Z,23.00
2018-07-06T16:57:46.393Z,23.00
2018-07-06T17:00:14.313Z,22.90
2018-07-06T17:02:41.998Z,22.90
2018-07-06T17:05:09.581Z,22.80
2018-07-06T17:07:37.214Z,22.80
2018-07-06T17:10:04.945Z,22.70
2018-07-06T17:12:32.750Z,22.70
2018-07-06T17:15:00.669Z,22.70
2018-07-06T17:17:28.236Z,22.60
2018-07-06T17:19:55.801Z,22.60
2018-07-06T17:22:23.519Z,22.60
2018-07-06T17:24:51.094Z,22.50
2018-07-06T17:29:46.165Z,22.50
2018-07-06T17:32:14.271Z,22.50
2018-07-06T17:34:41.812Z,22.50
2018-07-06T17:37:09.637Z,22.40
2018-07-06T17:39:37.154Z,22.40
2018-07-06T17:42:04.825Z,22.40
2018-07-06T17:44:32.341Z,22.40
2018-07-06T17:46:59.949Z,22.40
2018-07-06T17:49:27.486Z,22.40
2018-07-06T17:51:55.100Z,22.40
2018-07-06T17:54:22.600Z,22.40
2018-07-06T17:56:50.402Z,22.30
2018-07-06T17:59:17.984Z,22.30
2018-07-06T18:01:45.883Z,22.30
2018-07-06T18:04:13.727Z,22.30
2018-07-06T18:06:43.615Z,22.20
2018-07-06T18:09:11.187Z,22.10
2018-07-06T18:11:38.713Z,22.10
2018-07-06T18:14:06.255Z,22.10
2018-07-06T18:16:33.778Z,22.00
2018-07-06T18:19:01.344Z,22.00
2018-07-06T18:21:28.927Z,21.90
2018-07-06T18:23:56.438Z,21.80
2018-07-06T18:26:23.990Z,21.80
2018-07-06T18:28:51.553Z,21.70
2018-07-06T18:31:19.172Z,21.70
2018-07-06T18:36:14.287Z,21.50
2018-07-06T18:38:42.026Z,21.50
2018-07-06T18:41:09.604Z,21.50
2018-07-06T18:43:37.156Z,21.50
2018-07-06T18:46:04.780Z,21.40
2018-07-06T18:48:32.292Z,21.40
2018-07-06T18:53:27.982Z,21.20
2018-07-06T18:55:55.891Z,21.20
2018-07-06T18:58:23.409Z,21.20
2018-07-06T19:00:51.302Z,21.20
2018-07-06T19:03:18.970Z,21.20
2018-07-06T19:05:46.642Z,21.20
2018-07-06T19:08:14.512Z,21.20
2018-07-06T19:10:42.095Z,21.00
2018-07-06T19:13:09.658Z,20.90
2018-07-06T19:15:37.443Z,20.70
2018-07-06T19:18:05.088Z,20.50
2018-07-06T19:20:32.749Z,20.10
2018-07-06T19:23:00.465Z,19.90
2018-07-06T19:25:28.008Z,19.70
2018-07-06T19:27:55.825Z,19.50
2018-07-06T19:30:23.643Z,19.40
2018-07-06T19:32:51.943Z,19.50
2018-07-06T19:35:19.659Z,19.40
2018-07-06T19:37:47.385Z,19.30
2018-07-06T19:40:15.301Z,19.20
2018-07-06T19:42:43.631Z,19.20
2018-07-06T19:45:11.672Z,19.20
2018-07-06T19:47:39.274Z,19.30
2018-07-06T19:50:06.922Z,19.20
2018-07-06T19:52:34.469Z,19.20
2018-07-06T19:55:02.501Z,19.30
2018-07-06T19:57:30.038Z,19.30
2018-07-06T19:59:57.635Z,19.20
2018-07-06T20:02:25.176Z,19.20
2018-07-06T20:04:53.181Z,19.30
2018-07-06T20:07:20.845Z,19.30
2018-07-06T20:09:48.390Z,19.30
2018-07-06T20:12:16.028Z,19.30
2018-07-06T20:14:43.701Z,19.20
2018-07-06T20:17:11.262Z,19.20
2018-07-06T20:19:38.821Z,19.10
2018-07-06T20:24:33.837Z,19.10
2018-07-06T20:27:01.637Z,19.00
2018-07-06T20:29:29.158Z,19.00
2018-07-06T20:31:56.845Z,18.90
2018-07-06T20:34:24.412Z,18.80
2018-07-06T20:36:52.130Z,18.80
2018-07-06T20:39:19.804Z,18.70
2018-07-06T20:41:47.388Z,18.60
2018-07-06T20:44:15.085Z,18.50
2018-07-06T20:46:42.618Z,18.50
2018-07-06T20:49:10.392Z,18.50
2018-07-06T20:51:37.972Z,18.50
2018-07-06T20:54:05.537Z,18.40
2018-07-06T20:56:33.081Z,18.40
2018-07-06T20:59:00.681Z,18.40
2018-07-06T21:01:28.206Z,18.40
2018-07-06T21:03:55.909Z,18.40
2018-07-06T21:06:23.696Z,18.30
2018-07-06T21:08:51.732Z,18.30
2018-07-06T21:11:19.285Z,18.20
2018-07-06T21:13:47.185Z,18.20
2018-07-06T21:16:14.835Z,18.10
2018-07-06T21:18:42.314Z,18.10
2018-07-06T21:21:09.952Z,18.00
2018-07-06T21:23:37.693Z,18.00
2018-07-06T21:26:05.435Z,18.00
2018-07-06T21:28:33.229Z,17.90
2018-07-06T21:31:00.753Z,17.90
2018-07-06T21:33:28.498Z,17.90
2018-07-06T21:35:56.153Z,17.90
2018-07-06T21:38:23.669Z,17.80
2018-07-06T21:40:51.461Z,17.70
2018-07-06T21:43:19.118Z,17.60
2018-07-06T21:45:46.731Z,17.50
2018-07-06T21:48:14.320Z,17.50
2018-07-06T21:50:41.973Z,17.40
2018-07-06T21:53:09.492Z,17.40
2018-07-06T21:55:37.001Z,17.30
2018-07-06T21:58:04.867Z,17.30
2018-07-06T22:00:39.512Z,17.20
2018-07-06T22:03:08.617Z,17.20
2018-07-06T22:05:36.663Z,17.10
2018-07-06T22:08:05.157Z,17.10
2018-07-06T22:10:33.373Z,17.00
2018-07-06T22:13:01.088Z,17.00
2018-07-06T22:15:33.986Z,17.00
2018-07-06T22:18:01.886Z,16.90
2018-07-06T22:20:29.708Z,16.90
2018-07-06T22:22:57.242Z,16.90
2018-07-06T22:25:24.842Z,16.80
2018-07-06T22:27:52.410Z,16.80
2018-07-06T22:30:20.289Z,16.70
2018-07-06T22:32:47.863Z,16.60
2018-07-06T22:35:15.611Z,16.60
2018-07-06T22:37:43.513Z,16.50
2018-07-06T22:42:38.825Z,16.50
2018-07-06T22:45:06.414Z,16.40
2018-07-06T22:47:33.994Z,16.40
2018-07-06T22:50:01.761Z,16.40
2018-07-06T22:52:29.355Z,16.40
2018-07-06T23:04:02.166Z,16.30
2018-07-06T23:06:29.702Z,16.20
2018-07-06T23:08:57.324Z,16.10
2018-07-06T23:11:24.883Z,16.00
2018-07-06T23:13:52.477Z,15.90
2018-07-06T23:16:20.097Z,15.90
2018-07-06T23:21:16.047Z,15.80
2018-07-06T23:23:43.695Z,15.70
2018-07-06T23:26:11.542Z,15.70
2018-07-06T23:28:39.132Z,15.70
2018-07-06T23:31:06.710Z,15.70
2018-07-06T23:33:34.306Z,15.70
2018-07-06T23:36:02.796Z,15.60
2018-07-06T23:38:30.901Z,15.60
2018-07-06T23:40:58.820Z,15.60
2018-07-06T23:43:26.741Z,15.50
2018-07-06T23:45:54.416Z,15.50
2018-07-06T23:48:22.228Z,15.50
2018-07-06T23:50:49.802Z,15.50
2018-07-06T23:53:17.667Z,15.40
2018-07-06T23:55:45.440Z,15.40
